Pagina principale
METAR-TAF:

METAR-TAF

Aeroporti :

Aeroporto di Lugano-Agno

Lugano, Svizzera

latitudine: 46-00N, longitudine: 008-58E, altezza: 273 m

Osservazione

Il bollettino è stato emesso 7 minuti fa, alle 10:50 UTC
Vento 2 kt da direzioni variabili
Temperature 3°C
Umidità 81%
Pressione 1017 hPa
Visibilità: 8000 m
Poco nuvoloso ad un'altezza di 1200 ft
Nubi sparse ad un'altezza di 1900 ft
Cielo coperto ad un'altezza di 3200 ft
pioviggine debole

METAR: LSZA 191050Z VRB02KT 8000 -DZ FEW012 SCT019 OVC032 03/00 Q1017 NOSIG

Ora: 11:57 (10:57 UTC)

Previsione

Il bollettino è stato emesso 2 ore e 32 minuti fa, alle 08:25 UTC
Previsione valida dal 19 alle 09 UTC al 19 alle 18 UTC
Vento 3 kt da direzioni variabili
Visibilità: 8000 m
Nuvoloso ad un'altezza di 2000 ft
Temporaneamente
dal 19 alle 09 UTC al 19 alle 12 UTC
Visibilità: 4000 m
pioggia debole, neve

TAF: LSZA 190825Z 1909/1918 VRB03KT 8000 BKN020 TEMPO 1909/1912 4000 -RASN

Osservazioni e previsioni meteorologiche di più di 4000 aeroporti (messaggi METAR e TAF).

Le stazioni disponibili sono rappresentate dai dischi gialli e rossi sulla carta.

Puntare il mouse per vedere il nome della stazione.

Clicca sopra per visualizzare le osservazioni e previsioni meteorologiche.

Per cambiare la mappa : fare clic sui pulsanti verdi con una croce nera per ingrandire, il pulsante verde con un trattino per diminuire, o sulla freccia verde per le mappe adiacenti.


METAR-TAF: